Time;durP1;ratioP1;P1;durP2;ratioP2;P2;SDS_P1;SDS_P2;PMS_P1;PMS_P2;Temp;Humidity;BMP_temperature;BMP_pressure;BME280_temperature;BME280_humidity;BME280_pressure;Samples;Min_cycle;Max_cycle;Signal;HPM_P1;HPM_P2
2022/03/30 00:02:16;;;;;;;22.52;4.03;;;;;;;;;;5016572;28;20069;-75
2022/03/30 00:04:42;;;;;;;28.15;4.25;;;;;;;;;;5015064;28;20033;-76
2022/03/30 00:07:08;;;;;;;20.25;4.25;;;;;;;;;;5015022;28;20033;-76
2022/03/30 00:09:34;;;;;;;24.85;4.05;;;;;;;;;;5015478;28;20025;-76
2022/03/30 00:12:00;;;;;;;16.40;3.50;;;;;;;;;;5019184;28;20026;-75
2022/03/30 00:14:26;;;;;;;16.13;3.40;;;;;;;;;;5004550;28;20029;-75
2022/03/30 00:16:52;;;;;;;15.25;3.60;;;;;;;;;;5021117;28;20040;-75
2022/03/30 00:19:18;;;;;;;18.90;3.78;;;;;;;;;;5023406;28;20093;-76
2022/03/30 00:21:45;;;;;;;18.52;3.83;;;;;;;;;;5018515;28;20030;-76
2022/03/30 00:24:11;;;;;;;23.63;3.95;;;;;;;;;;5014940;28;20465;-75
2022/03/30 00:26:37;;;;;;;18.95;3.30;;;;;;;;;;5015626;28;20018;-76
2022/03/30 00:29:04;;;;;;;20.35;3.83;;;;;;;;;;5019327;28;20103;-75
2022/03/30 00:31:30;;;;;;;21.08;4.00;;;;;;;;;;5018811;28;20416;-76
2022/03/30 00:33:56;;;;;;;24.75;4.60;;;;;;;;;;4996435;28;20113;-76
2022/03/30 00:36:22;;;;;;;22.65;4.07;;;;;;;;;;5013821;28;20037;-75
2022/03/30 00:38:48;;;;;;;17.17;4.30;;;;;;;;;;5013840;28;20069;-75
2022/03/30 00:41:14;;;;;;;24.38;4.68;;;;;;;;;;5013894;28;20030;-75
2022/03/30 00:43:40;;;;;;;21.02;4.13;;;;;;;;;;5013502;28;20037;-75
2022/03/30 00:46:06;;;;;;;21.08;4.25;;;;;;;;;;5013513;28;20045;-75
2022/03/30 00:48:32;;;;;;;19.25;4.00;;;;;;;;;;5014059;28;20476;-76
2022/03/30 00:50:58;;;;;;;19.48;4.00;;;;;;;;;;5015722;28;20026;-76
2022/03/30 00:53:24;;;;;;;22.15;4.30;;;;;;;;;;5015181;28;20093;-76
2022/03/30 00:55:52;;;;;;;17.80;4.07;;;;;;;;;;5014168;28;20137;-75
2022/03/30 00:58:18;;;;;;;16.05;4.10;;;;;;;;;;5013664;28;20105;-75
2022/03/30 01:00:44;;;;;;;21.13;3.97;;;;;;;;;;4995959;28;20064;-75
2022/03/30 01:03:10;;;;;;;14.23;3.75;;;;;;;;;;5013810;28;20037;-75
2022/03/30 01:05:36;;;;;;;17.60;3.70;;;;;;;;;;5013679;28;20087;-75
2022/03/30 01:08:02;;;;;;;26.90;4.97;;;;;;;;;;5013655;28;20113;-77
2022/03/30 01:10:28;;;;;;;26.15;4.15;;;;;;;;;;5013560;28;20026;-75
2022/03/30 01:12:54;;;;;;;24.95;4.40;;;;;;;;;;4996071;28;20033;-76
2022/03/30 01:15:21;;;;;;;26.23;4.55;;;;;;;;;;5014983;28;20049;-76
2022/03/30 01:17:47;;;;;;;17.02;4.32;;;;;;;;;;5013941;28;20487;-75
2022/03/30 01:20:16;;;;;;;21.58;3.97;;;;;;;;;;5015570;28;20030;-76
2022/03/30 01:22:42;;;;;;;17.33;3.58;;;;;;;;;;5013020;28;20021;-76
2022/03/30 01:25:09;;;;;;;20.27;4.00;;;;;;;;;;5013153;28;20390;-75
2022/03/30 01:27:35;;;;;;;20.83;4.22;;;;;;;;;;5012127;28;20057;-76
2022/03/30 01:32:53;;;;;;;20.92;3.97;;;;;;;;;;5012833;28;20033;-75
2022/03/30 01:35:19;;;;;;;26.73;4.65;;;;;;;;;;5012873;28;20022;-77
2022/03/30 01:37:45;;;;;;;20.67;4.22;;;;;;;;;;5013073;28;20064;-75
2022/03/30 01:40:11;;;;;;;22.23;4.47;;;;;;;;;;5016056;28;20030;-75
2022/03/30 01:42:37;;;;;;;21.75;4.07;;;;;;;;;;5018259;28;20034;-75
2022/03/30 01:45:03;;;;;;;19.75;3.88;;;;;;;;;;5016474;28;20398;-75
2022/03/30 01:47:29;;;;;;;21.88;4.97;;;;;;;;;;5012841;28;20105;-77
2022/03/30 01:49:56;;;;;;;25.88;4.72;;;;;;;;;;5013133;28;20513;-77
2022/03/30 01:52:22;;;;;;;20.63;4.25;;;;;;;;;;5014724;28;20030;-75
2022/03/30 01:54:49;;;;;;;18.65;4.30;;;;;;;;;;5032343;28;20029;-75
2022/03/30 01:57:15;;;;;;;21.88;3.70;;;;;;;;;;5031937;28;20026;-76
2022/03/30 01:59:42;;;;;;;18.48;4.13;;;;;;;;;;5032020;28;20030;-75
2022/03/30 02:02:08;;;;;;;17.42;3.45;;;;;;;;;;5031558;28;20032;-76
2022/03/30 02:04:35;;;;;;;19.08;3.78;;;;;;;;;;5031605;28;20029;-76
2022/03/30 02:07:02;;;;;;;28.02;3.80;;;;;;;;;;5031563;28;20026;-76
2022/03/30 02:09:28;;;;;;;18.45;4.00;;;;;;;;;;5031921;28;20142;-78
2022/03/30 02:11:54;;;;;;;18.17;4.10;;;;;;;;;;5032277;28;20104;-76
2022/03/30 02:14:20;;;;;;;21.35;4.93;;;;;;;;;;5032239;28;20025;-76
2022/03/30 02:16:46;;;;;;;21.63;4.32;;;;;;;;;;5032120;28;20119;-76
2022/03/30 02:19:13;;;;;;;22.33;4.45;;;;;;;;;;5036836;28;20041;-76
2022/03/30 02:21:39;;;;;;;20.58;3.88;;;;;;;;;;5022206;28;20083;-76
2022/03/30 02:24:06;;;;;;;20.88;3.90;;;;;;;;;;5039008;28;20029;-76
2022/03/30 02:26:32;;;;;;;29.85;4.40;;;;;;;;;;5043720;28;20476;-77
2022/03/30 02:28:58;;;;;;;22.75;3.85;;;;;;;;;;5039206;28;20025;-78
2022/03/30 02:31:24;;;;;;;19.27;4.30;;;;;;;;;;5037933;28;20032;-75
2022/03/30 02:33:50;;;;;;;24.08;4.35;;;;;;;;;;5036557;28;20026;-76
2022/03/30 02:36:16;;;;;;;18.40;4.25;;;;;;;;;;5032729;28;20033;-76
2022/03/30 02:38:43;;;;;;;19.42;4.03;;;;;;;;;;5041432;28;20030;-75
2022/03/30 02:41:09;;;;;;;22.98;4.28;;;;;;;;;;5044741;28;20026;-76
2022/03/30 02:43:36;;;;;;;25.85;3.72;;;;;;;;;;5047126;28;20034;-75
2022/03/30 02:46:01;;;;;;;24.05;4.70;;;;;;;;;;5051426;28;20032;-76
2022/03/30 02:48:32;;;;;;;24.08;4.43;;;;;;;;;;5032980;28;20021;-75
2022/03/30 02:51:00;;;;;;;16.65;3.95;;;;;;;;;;5034252;28;20022;-75
2022/03/30 02:53:26;;;;;;;13.65;3.70;;;;;;;;;;5032366;28;20033;-76
2022/03/30 02:55:52;;;;;;;18.48;4.03;;;;;;;;;;5032313;28;20095;-77
2022/03/30 02:58:19;;;;;;;17.58;3.72;;;;;;;;;;5033278;28;20032;-77
2022/03/30 03:00:45;;;;;;;16.38;2.95;;;;;;;;;;5034639;28;20032;-76
2022/03/30 03:03:12;;;;;;;14.30;3.28;;;;;;;;;;5017622;28;20049;-77
2022/03/30 03:05:38;;;;;;;14.95;3.42;;;;;;;;;;5034120;28;20109;-74
2022/03/30 03:08:07;;;;;;;18.05;3.42;;;;;;;;;;5032005;28;20390;-75
2022/03/30 03:10:34;;;;;;;14.63;3.60;;;;;;;;;;5031700;28;20026;-75
2022/03/30 03:13:03;;;;;;;27.42;3.40;;;;;;;;;;5031924;28;20018;-76
2022/03/30 03:15:29;;;;;;;17.10;3.60;;;;;;;;;;5034469;28;20395;-76
2022/03/30 03:17:55;;;;;;;21.83;3.80;;;;;;;;;;5035257;28;20026;-76
2022/03/30 03:20:21;;;;;;;17.95;3.50;;;;;;;;;;5035538;28;20021;-77
2022/03/30 03:22:47;;;;;;;19.50;4.18;;;;;;;;;;5035159;28;20025;-77
2022/03/30 03:25:13;;;;;;;24.17;4.47;;;;;;;;;;5035116;28;20037;-76
2022/03/30 03:27:39;;;;;;;14.20;3.38;;;;;;;;;;5034955;28;20047;-76
2022/03/30 03:30:05;;;;;;;16.63;3.40;;;;;;;;;;5035160;28;20067;-76
2022/03/30 03:32:31;;;;;;;29.05;4.00;;;;;;;;;;5035901;28;20048;-76
2022/03/30 03:34:57;;;;;;;19.95;3.30;;;;;;;;;;5039037;28;20490;-74
2022/03/30 03:37:23;;;;;;;16.45;3.58;;;;;;;;;;5037321;28;20030;-76
2022/03/30 03:39:49;;;;;;;18.98;4.40;;;;;;;;;;5035529;28;20088;-76
2022/03/30 03:42:16;;;;;;;26.15;3.78;;;;;;;;;;5034937;28;20057;-76
2022/03/30 03:44:42;;;;;;;18.13;3.08;;;;;;;;;;5034607;28;20132;-75
2022/03/30 03:47:09;;;;;;;20.45;3.67;;;;;;;;;;5034808;28;20080;-76
2022/03/30 03:49:35;;;;;;;21.63;3.78;;;;;;;;;;5038253;28;20047;-77
2022/03/30 03:52:01;;;;;;;20.13;4.15;;;;;;;;;;5039934;28;20026;-76
2022/03/30 03:54:27;;;;;;;18.38;4.03;;;;;;;;;;5035511;28;20092;-76
2022/03/30 03:56:53;;;;;;;17.27;4.57;;;;;;;;;;5043198;28;20037;-77
2022/03/30 03:59:19;;;;;;;18.60;3.70;;;;;;;;;;5051140;28;20112;-76
2022/03/30 04:01:45;;;;;;;16.35;3.95;;;;;;;;;;5027549;28;20030;-75
2022/03/30 04:04:11;;;;;;;23.17;4.18;;;;;;;;;;5040039;28;20068;-76
2022/03/30 04:06:37;;;;;;;17.45;4.10;;;;;;;;;;5031220;28;20073;-76
2022/03/30 04:09:03;;;;;;;22.90;3.20;;;;;;;;;;5019702;28;20018;-76
2022/03/30 04:11:29;;;;;;;17.10;3.55;;;;;;;;;;5015799;28;20101;-76
2022/03/30 04:13:55;;;;;;;19.13;3.40;;;;;;;;;;5015148;28;20484;-75
2022/03/30 04:16:22;;;;;;;24.67;4.20;;;;;;;;;;5014677;28;20030;-76
2022/03/30 04:18:49;;;;;;;16.27;3.30;;;;;;;;;;5014403;28;20491;-75
2022/03/30 04:21:15;;;;;;;19.17;3.55;;;;;;;;;;5014826;28;20105;-76
2022/03/30 04:23:41;;;;;;;13.15;2.50;;;;;;;;;;4996712;28;20551;-76
2022/03/30 04:26:09;;;;;;;16.35;3.55;;;;;;;;;;4996445;28;20037;-75
2022/03/30 04:28:40;;;;;;;16.90;2.78;;;;;;;;;;5015344;28;20018;-76
2022/03/30 04:31:06;;;;;;;14.75;2.85;;;;;;;;;;5017509;28;20093;-76
2022/03/30 04:33:32;;;;;;;14.07;3.13;;;;;;;;;;5017077;28;20459;-77
2022/03/30 04:35:58;;;;;;;12.27;2.60;;;;;;;;;;5017898;28;20109;-76
2022/03/30 04:38:24;;;;;;;14.88;2.67;;;;;;;;;;5021985;28;20046;-75
2022/03/30 04:40:50;;;;;;;13.10;3.25;;;;;;;;;;5020275;28;20053;-76
2022/03/30 04:43:16;;;;;;;16.05;3.88;;;;;;;;;;5019795;28;20030;-75
2022/03/30 04:45:42;;;;;;;42.15;12.27;;;;;;;;;;5019745;28;20036;-76
2022/03/30 04:48:08;;;;;;;11.90;3.88;;;;;;;;;;5015450;28;20021;-76
2022/03/30 04:50:34;;;;;;;12.77;2.55;;;;;;;;;;5015089;28;20459;-75
2022/03/30 04:52:59;;;;;;;17.67;2.60;;;;;;;;;;4996428;28;20030;-76
2022/03/30 04:55:26;;;;;;;19.30;2.75;;;;;;;;;;5014049;28;20043;-76
2022/03/30 04:57:53;;;;;;;12.38;2.20;;;;;;;;;;5016417;28;20113;-77
2022/03/30 05:00:18;;;;;;;13.57;2.45;;;;;;;;;;5014157;28;20037;-76
2022/03/30 05:02:45;;;;;;;9.98;2.00;;;;;;;;;;5015061;28;20029;-76
2022/03/30 05:05:11;;;;;;;22.63;3.00;;;;;;;;;;5015427;28;20080;-77
2022/03/30 05:07:37;;;;;;;9.38;2.40;;;;;;;;;;5016056;28;20064;-76
2022/03/30 05:10:05;;;;;;;15.32;2.63;;;;;;;;;;5015420;28;20034;-76
2022/03/30 05:12:31;;;;;;;13.80;3.00;;;;;;;;;;5016037;28;20022;-75
2022/03/30 05:14:57;;;;;;;12.73;2.83;;;;;;;;;;5014254;28;20033;-76
2022/03/30 05:17:23;;;;;;;11.88;2.20;;;;;;;;;;5014758;28;20080;-76
2022/03/30 05:19:49;;;;;;;11.88;2.83;;;;;;;;;;5001535;28;20033;-76
2022/03/30 05:22:16;;;;;;;16.88;2.65;;;;;;;;;;5020455;28;20319;-79
2022/03/30 05:24:42;;;;;;;14.30;2.40;;;;;;;;;;5019126;28;20026;-77
2022/03/30 05:27:09;;;;;;;16.58;2.55;;;;;;;;;;5000831;28;20026;-76
2022/03/30 05:29:35;;;;;;;14.13;3.00;;;;;;;;;;4997359;28;20387;-76
2022/03/30 05:32:01;;;;;;;13.27;2.85;;;;;;;;;;5015622;28;20022;-77
2022/03/30 05:34:27;;;;;;;11.88;2.35;;;;;;;;;;5016006;28;20030;-75
2022/03/30 05:36:53;;;;;;;16.85;2.60;;;;;;;;;;5014767;28;20394;-76
2022/03/30 05:39:19;;;;;;;13.88;2.45;;;;;;;;;;5013972;28;20133;-75
2022/03/30 05:41:45;;;;;;;12.30;2.25;;;;;;;;;;5014281;28;20072;-76
2022/03/30 05:44:11;;;;;;;17.00;2.70;;;;;;;;;;5014843;28;20022;-76
2022/03/30 05:46:37;;;;;;;14.88;2.55;;;;;;;;;;5014114;28;20496;-77
2022/03/30 05:49:04;;;;;;;15.18;2.70;;;;;;;;;;5014159;28;20029;-77
2022/03/30 05:51:30;;;;;;;17.85;3.90;;;;;;;;;;4996915;28;20056;-75
2022/03/30 05:53:56;;;;;;;15.75;2.72;;;;;;;;;;5013905;28;20036;-76
2022/03/30 05:57:00;;;;;;;11.77;1.90;;;;;;;;;;5013564;28;20029;-74
2022/03/30 05:59:08;;;;;;;14.70;2.70;;;;;;;;;;5014191;28;20049;-75
2022/03/30 06:01:34;;;;;;;26.17;4.35;;;;;;;;;;5015672;28;20471;-75
2022/03/30 06:04:00;;;;;;;18.77;2.72;;;;;;;;;;5013592;28;20026;-73
2022/03/30 06:06:26;;;;;;;12.80;2.80;;;;;;;;;;5012891;28;20037;-74
2022/03/30 06:08:52;;;;;;;13.82;2.83;;;;;;;;;;5013584;28;20491;-75
2022/03/30 06:11:18;;;;;;;16.08;3.17;;;;;;;;;;5014662;28;20018;-75
2022/03/30 06:13:44;;;;;;;14.27;3.10;;;;;;;;;;5016976;28;20340;-76
2022/03/30 06:16:10;;;;;;;19.33;3.15;;;;;;;;;;5015681;28;20057;-74
2022/03/30 06:18:37;;;;;;;15.15;3.15;;;;;;;;;;5014401;28;20499;-75
2022/03/30 06:21:03;;;;;;;14.05;3.00;;;;;;;;;;4997913;28;20033;-76
2022/03/30 06:23:29;;;;;;;14.43;3.40;;;;;;;;;;5020966;28;20034;-76
2022/03/30 06:25:55;;;;;;;18.52;3.55;;;;;;;;;;5019677;28;20026;-76
2022/03/30 06:28:26;;;;;;;11.95;3.65;;;;;;;;;;5013985;28;20029;-75
2022/03/30 06:30:53;;;;;;;11.95;3.22;;;;;;;;;;5027156;28;20013;-76
2022/03/30 06:33:19;;;;;;;11.38;3.60;;;;;;;;;;5039188;28;20026;-75
2022/03/30 06:35:45;;;;;;;14.73;3.80;;;;;;;;;;5036211;28;20509;-76
2022/03/30 06:38:11;;;;;;;16.08;3.70;;;;;;;;;;5034601;28;20041;-75
2022/03/30 06:40:37;;;;;;;14.13;3.78;;;;;;;;;;5032749;28;20068;-76
2022/03/30 06:43:04;;;;;;;20.13;4.88;;;;;;;;;;5024903;28;20387;-76
2022/03/30 06:45:30;;;;;;;34.08;5.57;;;;;;;;;;5012727;28;20105;-75
2022/03/30 06:47:56;;;;;;;20.42;4.18;;;;;;;;;;5019743;28;20041;-75
2022/03/30 06:50:23;;;;;;;16.42;4.10;;;;;;;;;;5022655;28;20026;-76
2022/03/30 06:52:49;;;;;;;11.75;3.60;;;;;;;;;;5027959;28;20023;-75
2022/03/30 06:55:15;;;;;;;18.80;3.92;;;;;;;;;;5039406;28;20108;-75
2022/03/30 06:57:44;;;;;;;14.25;3.67;;;;;;;;;;5038073;28;20040;-74
2022/03/30 07:00:12;;;;;;;14.15;3.83;;;;;;;;;;5036291;28;20100;-75
2022/03/30 07:02:38;;;;;;;10.95;3.90;;;;;;;;;;5035980;28;20501;-75
2022/03/30 07:05:04;;;;;;;18.35;4.75;;;;;;;;;;5035767;28;20108;-77
2022/03/30 07:10:15;;;;;;;17.70;4.82;;;;;;;;;;5037695;28;20068;-76
2022/03/30 07:12:41;;;;;;;11.20;3.97;;;;;;;;;;5036890;28;20116;-77
2022/03/30 07:15:07;;;;;;;19.17;4.35;;;;;;;;;;5037649;28;20033;-75
2022/03/30 07:17:36;;;;;;;17.88;4.10;;;;;;;;;;5036770;28;20122;-75
2022/03/30 07:20:05;;;;;;;11.68;3.53;;;;;;;;;;5036475;28;20071;-75
2022/03/30 07:22:30;;;;;;;19.45;4.05;;;;;;;;;;5036956;28;20371;-74
2022/03/30 07:24:56;;;;;;;13.88;4.05;;;;;;;;;;5035867;28;20026;-74
2022/03/30 07:27:22;;;;;;;15.93;4.82;;;;;;;;;;5035959;28;20105;-75
2022/03/30 07:29:49;;;;;;;15.60;4.32;;;;;;;;;;5037368;28;20408;-75
2022/03/30 07:32:14;;;;;;;17.55;4.85;;;;;;;;;;5038833;28;20032;-77
2022/03/30 07:34:40;;;;;;;12.13;4.38;;;;;;;;;;5020942;28;20029;-75
2022/03/30 07:37:06;;;;;;;16.92;4.30;;;;;;;;;;5018506;28;20031;-75
2022/03/30 07:39:32;;;;;;;22.80;4.25;;;;;;;;;;5037104;28;20040;-76
2022/03/30 07:41:58;;;;;;;15.20;4.65;;;;;;;;;;5037977;28;20037;-74
2022/03/30 07:44:24;;;;;;;18.90;4.50;;;;;;;;;;5037563;28;20036;-75
2022/03/30 07:46:50;;;;;;;16.77;3.92;;;;;;;;;;5037872;28;20115;-75
2022/03/30 07:49:17;;;;;;;15.75;3.85;;;;;;;;;;5040321;28;20052;-77
2022/03/30 07:51:43;;;;;;;25.52;4.65;;;;;;;;;;5039800;28;20391;-75
2022/03/30 07:54:09;;;;;;;17.13;4.38;;;;;;;;;;5038806;28;20025;-76
2022/03/30 07:56:35;;;;;;;13.90;4.07;;;;;;;;;;5036122;28;20036;-75
2022/03/30 07:59:01;;;;;;;11.68;4.07;;;;;;;;;;5035708;28;20036;-75
2022/03/30 08:01:27;;;;;;;17.88;4.65;;;;;;;;;;5035968;28;20052;-75
2022/03/30 08:03:53;;;;;;;18.67;4.63;;;;;;;;;;5037975;28;20034;-75
2022/03/30 08:06:20;;;;;;;17.27;4.25;;;;;;;;;;5043268;28;20056;-74
2022/03/30 08:08:46;;;;;;;23.55;7.88;;;;;;;;;;5045850;28;20025;-75
2022/03/30 08:11:11;;;;;;;23.45;5.32;;;;;;;;;;5026569;28;20029;-77
2022/03/30 08:13:37;;;;;;;15.65;5.70;;;;;;;;;;5037599;28;20025;-75
2022/03/30 08:16:04;;;;;;;13.38;4.32;;;;;;;;;;5034242;28;20026;-74
2022/03/30 08:18:30;;;;;;;11.50;3.75;;;;;;;;;;5034827;28;20406;-75
2022/03/30 08:23:40;;;;;;;19.27;5.45;;;;;;;;;;5035658;28;20043;-75
2022/03/30 08:26:06;;;;;;;9.48;4.50;;;;;;;;;;5034221;28;20454;-74
2022/03/30 08:28:32;;;;;;;22.20;6.50;;;;;;;;;;5034915;28;20083;-75
2022/03/30 08:30:58;;;;;;;15.43;4.28;;;;;;;;;;5017541;28;20087;-74
2022/03/30 08:33:26;;;;;;;11.93;4.07;;;;;;;;;;5035728;28;20081;-75
2022/03/30 08:35:53;;;;;;;16.42;4.70;;;;;;;;;;5035250;28;20097;-75
2022/03/30 08:38:20;;;;;;;15.63;4.05;;;;;;;;;;5034301;28;20069;-75
2022/03/30 08:40:46;;;;;;;14.93;4.18;;;;;;;;;;5034569;28;20275;-77
2022/03/30 08:43:12;;;;;;;11.07;3.85;;;;;;;;;;5034190;28;20057;-76
2022/03/30 08:45:38;;;;;;;14.93;4.55;;;;;;;;;;5033934;28;20368;-76
2022/03/30 08:48:05;;;;;;;11.32;4.22;;;;;;;;;;5034293;28;20068;-75
2022/03/30 08:50:31;;;;;;;15.43;5.30;;;;;;;;;;5035309;28;20097;-76
2022/03/30 08:52:59;;;;;;;14.07;3.88;;;;;;;;;;5035088;28;20082;-76
2022/03/30 08:55:25;;;;;;;13.20;4.10;;;;;;;;;;5016387;28;20036;-76
2022/03/30 08:57:51;;;;;;;14.55;3.67;;;;;;;;;;5034386;28;20553;-75
2022/03/30 09:00:21;;;;;;;12.15;4.00;;;;;;;;;;5034616;28;20029;-74
2022/03/30 09:02:52;;;;;;;13.18;4.43;;;;;;;;;;5031659;28;20053;-74
2022/03/30 09:05:25;;;;;;;13.95;4.45;;;;;;;;;;4995875;28;20030;-76
2022/03/30 09:07:54;;;;;;;12.77;4.07;;;;;;;;;;4994311;28;20030;-75
2022/03/30 09:10:25;;;;;;;16.08;6.00;;;;;;;;;;4977168;28;20026;-74
2022/03/30 09:12:52;;;;;;;13.57;3.13;;;;;;;;;;4994257;28;20484;-76
2022/03/30 09:15:23;;;;;;;12.50;3.42;;;;;;;;;;4994948;28;20030;-76
2022/03/30 09:17:49;;;;;;;11.18;3.55;;;;;;;;;;4994999;28;20105;-75
2022/03/30 09:20:16;;;;;;;11.52;3.83;;;;;;;;;;4996065;28;20483;-75
2022/03/30 09:22:42;;;;;;;8.65;3.20;;;;;;;;;;4999832;28;20113;-76
2022/03/30 09:25:09;;;;;;;13.02;3.45;;;;;;;;;;5001050;28;20026;-74
2022/03/30 09:27:39;;;;;;;9.70;4.18;;;;;;;;;;4995498;28;20033;-74
2022/03/30 09:30:06;;;;;;;8.65;4.00;;;;;;;;;;4998419;28;20069;-75
2022/03/30 09:32:32;;;;;;;11.88;3.60;;;;;;;;;;4996957;28;20472;-74
2022/03/30 09:34:59;;;;;;;9.63;2.90;;;;;;;;;;4995095;28;20049;-75
2022/03/30 09:37:25;;;;;;;97.55;9.95;;;;;;;;;;4996199;28;20393;-75
2022/03/30 09:39:51;;;;;;;60.13;8.07;;;;;;;;;;4998591;28;20122;-78
2022/03/30 09:42:18;;;;;;;20.38;5.35;;;;;;;;;;5001030;28;20558;-75
2022/03/30 09:44:49;;;;;;;9.23;3.17;;;;;;;;;;4998168;28;20030;-75
2022/03/30 09:47:15;;;;;;;12.00;4.95;;;;;;;;;;4997767;28;20037;-75
2022/03/30 09:49:42;;;;;;;8.27;3.35;;;;;;;;;;5004148;28;20021;-74
2022/03/30 09:52:14;;;;;;;28.25;12.65;;;;;;;;;;4999167;28;20041;-74
2022/03/30 09:54:51;;;;;;;79.90;41.92;;;;;;;;;;5015456;28;20036;-76
2022/03/30 09:57:22;;;;;;;32.20;7.60;;;;;;;;;;5014757;28;20028;-75
2022/03/30 09:59:57;;;;;;;15.80;5.15;;;;;;;;;;5016113;28;20078;-74
2022/03/30 10:02:24;;;;;;;15.00;4.93;;;;;;;;;;5017285;28;20022;-76
2022/03/30 10:04:50;;;;;;;9.57;3.63;;;;;;;;;;5017055;28;20022;-74
2022/03/30 10:07:17;;;;;;;12.75;3.75;;;;;;;;;;5015527;28;20025;-75
2022/03/30 10:09:43;;;;;;;9.60;3.13;;;;;;;;;;5015418;28;20546;-75
2022/03/30 10:12:09;;;;;;;17.60;4.10;;;;;;;;;;5015939;28;20033;-75
2022/03/30 10:14:39;;;;;;;17.73;3.70;;;;;;;;;;5013891;28;20025;-75
2022/03/30 10:17:05;;;;;;;12.15;3.90;;;;;;;;;;5012965;28;20101;-74
2022/03/30 10:19:32;;;;;;;149.85;12.40;;;;;;;;;;5012991;28;20163;-73
2022/03/30 10:22:17;;;;;;;26.55;4.40;;;;;;;;;;5013955;28;20105;-76
2022/03/30 10:24:52;;;;;;;16.90;4.32;;;;;;;;;;5017883;28;20025;-75
2022/03/30 10:27:18;;;;;;;14.48;3.15;;;;;;;;;;5019180;28;20018;-77
2022/03/30 10:29:52;;;;;;;13.65;3.60;;;;;;;;;;5001046;28;20030;-75
2022/03/30 10:32:23;;;;;;;17.10;3.55;;;;;;;;;;5016451;28;20036;-75
2022/03/30 10:34:50;;;;;;;24.20;3.63;;;;;;;;;;5016560;28;20036;-74
2022/03/30 10:37:23;;;;;;;23.95;3.72;;;;;;;;;;5016654;28;20065;-75
2022/03/30 10:39:56;;;;;;;13.05;3.15;;;;;;;;;;5017429;28;20391;-75
2022/03/30 10:42:22;;;;;;;8.68;2.55;;;;;;;;;;5019878;28;20026;-75
2022/03/30 10:44:57;;;;;;;10.13;3.00;;;;;;;;;;5020460;28;20018;-75
2022/03/30 10:47:25;;;;;;;7.72;2.38;;;;;;;;;;5019159;28;20030;-75
2022/03/30 10:49:51;;;;;;;12.02;3.08;;;;;;;;;;5018427;28;20029;-75
2022/03/30 10:52:35;;;;;;;6.88;2.47;;;;;;;;;;5019214;28;20026;-76
2022/03/30 10:55:13;;;;;;;8.32;2.70;;;;;;;;;;5022512;28;20026;-75
2022/03/30 10:57:53;;;;;;;8.95;2.50;;;;;;;;;;5020435;28;20049;-75
2022/03/30 11:00:19;;;;;;;6.22;2.50;;;;;;;;;;5017084;28;20107;-75
2022/03/30 11:02:45;;;;;;;10.77;2.80;;;;;;;;;;5018910;28;20026;-75
2022/03/30 11:05:12;;;;;;;7.40;2.30;;;;;;;;;;5020665;28;20053;-76
2022/03/30 11:07:38;;;;;;;8.75;2.70;;;;;;;;;;5021904;28;20022;-75
2022/03/30 11:10:17;;;;;;;7.53;2.08;;;;;;;;;;5020655;28;20022;-75
2022/03/30 11:13:02;;;;;;;5.18;2.05;;;;;;;;;;5022524;28;20033;-74
2022/03/30 11:15:28;;;;;;;5.30;2.00;;;;;;;;;;5017723;28;20379;-75
2022/03/30 11:17:56;;;;;;;8.05;2.45;;;;;;;;;;5018349;28;20268;-74
2022/03/30 11:20:23;;;;;;;8.52;2.65;;;;;;;;;;5019737;28;20408;-75
2022/03/30 11:22:50;;;;;;;6.28;2.15;;;;;;;;;;5017677;28;20526;-75
2022/03/30 11:25:23;;;;;;;8.55;2.15;;;;;;;;;;5018688;28;20045;-74
2022/03/30 11:27:58;;;;;;;8.13;3.17;;;;;;;;;;5018107;28;20076;-74
2022/03/30 11:30:31;;;;;;;14.05;3.45;;;;;;;;;;5020588;28;20022;-75
2022/03/30 11:32:58;;;;;;;15.95;2.65;;;;;;;;;;5018168;28;20022;-75
2022/03/30 11:35:28;;;;;;;5.70;2.17;;;;;;;;;;5019068;28;20450;-75
2022/03/30 11:38:07;;;;;;;7.57;2.30;;;;;;;;;;4996572;28;20412;-75
2022/03/30 11:40:44;;;;;;;10.07;2.88;;;;;;;;;;5045207;28;20033;-73
2022/03/30 11:43:10;;;;;;;7.63;2.55;;;;;;;;;;5050464;28;20032;-75
2022/03/30 11:45:36;;;;;;;5.53;2.20;;;;;;;;;;5052000;28;20076;-75
2022/03/30 11:48:06;;;;;;;8.80;2.10;;;;;;;;;;5050838;28;20048;-74
2022/03/30 11:50:35;;;;;;;6.53;2.13;;;;;;;;;;5041515;28;20024;-75
2022/03/30 11:53:04;;;;;;;13.18;5.47;;;;;;;;;;5035449;28;20025;-75
2022/03/30 11:55:32;;;;;;;10.48;3.03;;;;;;;;;;5035653;28;20022;-75
2022/03/30 11:58:00;;;;;;;8.70;2.60;;;;;;;;;;5035439;28;20076;-74
2022/03/30 12:00:27;;;;;;;10.23;2.65;;;;;;;;;;5035627;28;20064;-75
2022/03/30 12:02:55;;;;;;;13.65;5.50;;;;;;;;;;5035261;28;20029;-75
2022/03/30 12:05:21;;;;;;;10.35;3.72;;;;;;;;;;5035794;28;20029;-75
2022/03/30 12:07:51;;;;;;;9.57;3.17;;;;;;;;;;5036961;28;20029;-76
2022/03/30 12:10:17;;;;;;;7.50;2.75;;;;;;;;;;5038804;28;20022;-75
2022/03/30 12:12:43;;;;;;;16.98;6.70;;;;;;;;;;5038293;28;20544;-75
2022/03/30 12:15:11;;;;;;;21.48;9.90;;;;;;;;;;5037421;28;20082;-75
2022/03/30 12:17:38;;;;;;;8.60;2.83;;;;;;;;;;5019636;28;20025;-74
2022/03/30 12:20:05;;;;;;;10.55;2.70;;;;;;;;;;5049446;22;20116;-76
2022/03/30 12:22:32;;;;;;;6.55;2.45;;;;;;;;;;5018574;28;20092;-78
2022/03/30 12:24:58;;;;;;;5.97;2.08;;;;;;;;;;5016279;28;20115;-77
2022/03/30 12:27:24;;;;;;;10.45;2.90;;;;;;;;;;5016152;28;20459;-78
2022/03/30 12:29:53;;;;;;;7.97;3.00;;;;;;;;;;5016481;28;20030;-77
2022/03/30 12:32:23;;;;;;;8.82;2.50;;;;;;;;;;5018021;28;20029;-76
2022/03/30 12:34:49;;;;;;;8.20;2.65;;;;;;;;;;5030006;28;20041;-78
2022/03/30 12:37:20;;;;;;;8.38;2.50;;;;;;;;;;5038393;28;20030;-78
2022/03/30 12:39:46;;;;;;;7.72;3.00;;;;;;;;;;5022384;28;20030;-76
2022/03/30 12:42:22;;;;;;;14.23;6.07;;;;;;;;;;5017193;28;20022;-77
2022/03/30 12:44:49;;;;;;;5.57;2.20;;;;;;;;;;5019463;28;20034;-76
2022/03/30 12:47:30;;;;;;;5.57;2.20;;;;;;;;;;5019588;28;20028;-76
2022/03/30 12:49:57;;;;;;;6.85;2.10;;;;;;;;;;5019685;28;20066;-77
2022/03/30 12:52:32;;;;;;;6.57;2.40;;;;;;;;;;5016854;28;20022;-78
2022/03/30 12:55:11;;;;;;;5.18;2.10;;;;;;;;;;5015889;28;20034;-77
2022/03/30 12:57:37;;;;;;;6.15;2.30;;;;;;;;;;5016215;28;20040;-76
2022/03/30 13:00:16;;;;;;;6.93;2.03;;;;;;;;;;5015698;28;20368;-76
2022/03/30 13:02:42;;;;;;;10.52;2.80;;;;;;;;;;4997807;28;20112;-76
2022/03/30 13:05:08;;;;;;;4.95;2.10;;;;;;;;;;5016465;28;20076;-74
2022/03/30 13:07:48;;;;;;;7.90;2.40;;;;;;;;;;5016638;28;20030;-80
2022/03/30 13:10:14;;;;;;;9.32;2.53;;;;;;;;;;5015967;28;20026;-78
2022/03/30 13:12:44;;;;;;;10.13;2.53;;;;;;;;;;4996012;28;20388;-77
2022/03/30 13:15:14;;;;;;;6.90;2.33;;;;;;;;;;4997235;28;20034;-77
2022/03/30 13:17:57;;;;;;;9.80;2.45;;;;;;;;;;4980708;28;20022;-77
2022/03/30 13:20:23;;;;;;;4.90;1.90;;;;;;;;;;4997059;28;20046;-78
2022/03/30 13:22:55;;;;;;;7.68;1.63;;;;;;;;;;4994756;28;20049;-77
2022/03/30 13:25:40;;;;;;;5.05;1.85;;;;;;;;;;4994452;28;20096;-77
2022/03/30 13:28:06;;;;;;;10.70;2.53;;;;;;;;;;4994984;28;20022;-78
2022/03/30 13:30:34;;;;;;;4.65;1.88;;;;;;;;;;4995107;28;20080;-79
2022/03/30 13:33:00;;;;;;;6.22;1.80;;;;;;;;;;4978343;28;20057;-78
2022/03/30 13:35:27;;;;;;;5.80;2.53;;;;;;;;;;4994255;28;20022;-77
2022/03/30 13:37:53;;;;;;;9.77;2.00;;;;;;;;;;4995301;28;20033;-77
2022/03/30 13:40:19;;;;;;;4.25;1.90;;;;;;;;;;4994456;28;20026;-75
2022/03/30 13:42:46;;;;;;;4.80;1.60;;;;;;;;;;4994966;28;20030;-77
2022/03/30 13:45:14;;;;;;;3.67;1.52;;;;;;;;;;4994865;28;20476;-78
2022/03/30 13:47:41;;;;;;;6.88;1.58;;;;;;;;;;4994260;28;20018;-77
2022/03/30 13:50:07;;;;;;;6.13;1.88;;;;;;;;;;4995452;28;20049;-77
2022/03/30 13:52:33;;;;;;;3.72;1.65;;;;;;;;;;4994002;28;20053;-78
2022/03/30 13:54:59;;;;;;;4.60;1.77;;;;;;;;;;4995157;28;20034;-78
2022/03/30 13:57:25;;;;;;;6.32;1.92;;;;;;;;;;4992420;28;20034;-77
2022/03/30 13:59:51;;;;;;;8.25;2.70;;;;;;;;;;4977436;28;20076;-78
2022/03/30 14:02:17;;;;;;;5.57;1.95;;;;;;;;;;4994998;28;20030;-77
2022/03/30 14:04:46;;;;;;;11.02;3.65;;;;;;;;;;4993977;28;20565;-78
2022/03/30 14:07:11;;;;;;;3.53;1.65;;;;;;;;;;4994170;28;20475;-78
2022/03/30 14:09:37;;;;;;;16.17;7.25;;;;;;;;;;4995283;28;20114;-77
2022/03/30 14:12:04;;;;;;;5.68;2.55;;;;;;;;;;4977366;28;20085;-78
2022/03/30 14:14:30;;;;;;;4.22;1.70;;;;;;;;;;4995660;28;20030;-78
2022/03/30 14:16:58;;;;;;;9.20;3.60;;;;;;;;;;4996842;28;20026;-77
2022/03/30 14:19:24;;;;;;;4.35;1.58;;;;;;;;;;4998779;28;20069;-77
2022/03/30 14:21:50;;;;;;;5.13;1.80;;;;;;;;;;4999074;28;20052;-77
2022/03/30 14:24:16;;;;;;;4.47;1.50;;;;;;;;;;5005565;28;20070;-76
2022/03/30 14:26:42;;;;;;;4.63;1.48;;;;;;;;;;4988924;28;20037;-76
2022/03/30 14:29:08;;;;;;;7.30;1.60;;;;;;;;;;4988928;28;20035;-76
2022/03/30 14:31:34;;;;;;;5.45;1.98;;;;;;;;;;4999839;28;20088;-77
2022/03/30 14:34:01;;;;;;;3.42;1.40;;;;;;;;;;4998158;28;20391;-79
2022/03/30 14:36:26;;;;;;;6.20;2.25;;;;;;;;;;4995284;28;20029;-77
2022/03/30 14:38:52;;;;;;;3.63;1.50;;;;;;;;;;4995194;28;20018;-78
2022/03/30 14:41:18;;;;;;;5.40;2.20;;;;;;;;;;4995590;28;20028;-76
2022/03/30 14:43:44;;;;;;;6.97;1.75;;;;;;;;;;4999101;28;20184;-77